createdAt,value
2022-12-18T00:01:52.446Z,-9.21
2022-12-18T00:04:24.049Z,-9.20
2022-12-18T00:06:50.619Z,-9.06
2022-12-18T00:09:39.628Z,-8.94
2022-12-18T00:12:24.874Z,-9.08
2022-12-18T00:14:51.370Z,-9.21
2022-12-18T00:17:17.730Z,-9.18
2022-12-18T00:19:44.119Z,-9.31
2022-12-18T00:22:14.681Z,-9.31
2022-12-18T00:24:41.013Z,-9.18
2022-12-18T00:27:07.356Z,-9.08
2022-12-18T00:29:33.795Z,-9.00
2022-12-18T00:32:00.206Z,-8.90
2022-12-18T00:34:26.942Z,-8.85
2022-12-18T00:36:53.286Z,-8.97
2022-12-18T00:39:19.729Z,-8.82
2022-12-18T00:42:04.555Z,-8.67
2022-12-18T00:44:31.068Z,-8.62
2022-12-18T00:50:19.696Z,-8.82
2022-12-18T00:52:46.032Z,-8.75
2022-12-18T00:55:12.643Z,-8.76
2022-12-18T00:57:39.021Z,-8.72
2022-12-18T01:00:08.874Z,-8.66
2022-12-18T01:02:35.307Z,-8.52
2022-12-18T01:05:03.006Z,-8.56
2022-12-18T01:07:29.381Z,-8.52
2022-12-18T01:09:55.705Z,-8.54
2022-12-18T01:12:22.162Z,-8.61
2022-12-18T01:14:48.618Z,-8.65
2022-12-18T01:17:15.419Z,-8.62
2022-12-18T01:19:42.866Z,-8.65
2022-12-18T01:22:14.275Z,-8.59
2022-12-18T01:24:40.663Z,-8.48
2022-12-18T01:27:10.096Z,-8.55
2022-12-18T01:29:36.503Z,-8.53
2022-12-18T01:32:02.876Z,-8.58
2022-12-18T01:34:29.276Z,-8.65
2022-12-18T01:36:55.616Z,-8.67
2022-12-18T01:39:22.069Z,-8.53
2022-12-18T01:42:04.324Z,-8.44
2022-12-18T01:44:49.178Z,-8.42
2022-12-18T01:47:35.819Z,-8.38
2022-12-18T01:50:16.177Z,-8.01
2022-12-18T01:52:44.812Z,-8.41
2022-12-18T01:55:11.866Z,-8.35
2022-12-18T01:57:38.947Z,-8.44
2022-12-18T02:00:08.084Z,-8.35
2022-12-18T02:02:34.538Z,-8.45
2022-12-18T02:05:01.375Z,-8.50
2022-12-18T02:07:50.673Z,-8.20
2022-12-18T02:10:25.296Z,-8.19
2022-12-18T02:12:57.453Z,-8.13
2022-12-18T02:15:31.818Z,-8.09
2022-12-18T02:18:20.088Z,-8.10
2022-12-18T02:20:49.888Z,-8.27
2022-12-18T02:23:39.982Z,-8.13
2022-12-18T02:26:12.470Z,-8.21
2022-12-18T02:28:47.856Z,-8.24
2022-12-18T02:31:49.388Z,-8.25
2022-12-18T02:34:15.849Z,-8.24
2022-12-18T02:36:44.641Z,-8.42
2022-12-18T02:39:12.674Z,-8.31
2022-12-18T02:41:39.647Z,-8.41
2022-12-18T02:44:20.148Z,-8.08
2022-12-18T02:46:49.776Z,-8.06
2022-12-18T02:49:16.115Z,-7.97
2022-12-18T02:51:42.423Z,-8.01
2022-12-18T02:54:18.585Z,-8.04
2022-12-18T02:56:50.292Z,-7.93
2022-12-18T02:59:19.892Z,-7.99
2022-12-18T03:01:46.340Z,-7.95
2022-12-18T03:04:22.242Z,-8.11
2022-12-18T03:06:50.737Z,-7.99
2022-12-18T03:09:22.243Z,-7.91
2022-12-18T03:12:16.741Z,-7.99
2022-12-18T03:14:44.887Z,-8.15
2022-12-18T03:17:14.548Z,-8.10
2022-12-18T03:19:41.365Z,-8.08
2022-12-18T03:22:08.538Z,-8.07
2022-12-18T03:24:39.934Z,-8.14
2022-12-18T03:27:12.835Z,-8.11
2022-12-18T03:30:08.473Z,-7.94
2022-12-18T03:32:51.178Z,-7.77
2022-12-18T03:35:19.651Z,-7.91
2022-12-18T03:37:47.079Z,-7.81
2022-12-18T03:40:13.584Z,-7.84
2022-12-18T03:42:51.006Z,-7.93
2022-12-18T03:45:17.341Z,-7.75
2022-12-18T03:51:37.694Z,-7.95
2022-12-18T03:54:05.908Z,-8.04
2022-12-18T03:57:02.030Z,-7.88
2022-12-18T03:59:58.454Z,-8.02
2022-12-18T04:02:25.798Z,-7.84
2022-12-18T04:04:54.190Z,-7.59
2022-12-18T04:07:21.751Z,-7.36
2022-12-18T04:09:49.570Z,-7.51
2022-12-18T04:12:55.029Z,-7.58
2022-12-18T04:15:51.384Z,-7.53
2022-12-18T04:18:17.761Z,-7.67
2022-12-18T04:21:13.907Z,-7.59
2022-12-18T04:23:40.576Z,-7.57
2022-12-18T04:26:07.308Z,-7.67
2022-12-18T04:28:44.619Z,-7.60
2022-12-18T04:31:11.007Z,-7.59
2022-12-18T04:33:37.707Z,-7.39
2022-12-18T04:36:04.494Z,-7.49
2022-12-18T04:38:30.844Z,-7.49
2022-12-18T04:40:57.217Z,-7.61
2022-12-18T04:43:23.639Z,-7.84
2022-12-18T04:46:10.111Z,-7.51
2022-12-18T04:48:36.874Z,-7.56
2022-12-18T04:51:26.608Z,-7.58
2022-12-18T04:53:53.368Z,-7.50
2022-12-18T04:56:19.786Z,-7.80
2022-12-18T04:58:46.207Z,-7.83
2022-12-18T05:01:19.065Z,-7.47
2022-12-18T05:03:46.189Z,-7.56
2022-12-18T05:06:12.711Z,-7.72
2022-12-18T05:08:39.154Z,-7.68
2022-12-18T05:11:08.999Z,-7.87
2022-12-18T05:13:36.314Z,-7.95
2022-12-18T05:16:03.267Z,-7.86
2022-12-18T05:18:29.862Z,-7.84
2022-12-18T05:20:56.451Z,-7.87
2022-12-18T05:23:30.757Z,-7.73
2022-12-18T05:25:58.871Z,-7.65
2022-12-18T05:28:35.437Z,-7.61
2022-12-18T05:31:03.282Z,-7.64
2022-12-18T05:33:31.048Z,-7.69
2022-12-18T05:36:00.731Z,-7.79
2022-12-18T05:38:27.630Z,-7.74
2022-12-18T05:40:54.359Z,-7.65
2022-12-18T05:43:57.729Z,-7.51
2022-12-18T05:46:25.292Z,-7.46
2022-12-18T05:49:05.822Z,-7.35
2022-12-18T05:51:32.412Z,-7.31
2022-12-18T05:54:15.977Z,-7.43
2022-12-18T05:56:48.500Z,-7.48
2022-12-18T05:59:15.379Z,-7.47
2022-12-18T06:01:41.911Z,-7.39
2022-12-18T06:04:10.431Z,-7.26
2022-12-18T06:06:42.032Z,-7.40
2022-12-18T06:12:43.280Z,-7.25
2022-12-18T06:15:09.839Z,-7.24
2022-12-18T06:17:37.970Z,-7.30
2022-12-18T06:20:05.196Z,-7.17
2022-12-18T06:22:32.147Z,-7.02
2022-12-18T06:24:58.532Z,-7.17
2022-12-18T06:27:50.811Z,-7.27
2022-12-18T06:30:17.396Z,-7.36
2022-12-18T06:32:43.764Z,-7.27
2022-12-18T06:35:31.959Z,-7.26
2022-12-18T06:37:58.318Z,-7.29
2022-12-18T06:40:24.657Z,-7.31
2022-12-18T06:43:00.628Z,-7.29
2022-12-18T06:45:27.061Z,-7.41
2022-12-18T06:47:58.208Z,-7.41
2022-12-18T06:50:25.558Z,-7.45
2022-12-18T06:52:55.057Z,-7.45
2022-12-18T06:55:21.451Z,-7.28
2022-12-18T06:58:10.921Z,-7.25
2022-12-18T07:00:37.931Z,-7.33
2022-12-18T07:03:04.426Z,-7.30
2022-12-18T07:05:30.860Z,-7.22
2022-12-18T07:07:57.197Z,-7.03
2022-12-18T07:10:23.506Z,-7.17
2022-12-18T07:12:49.973Z,-7.14
2022-12-18T07:15:16.301Z,-7.12
2022-12-18T07:17:42.761Z,-7.08
2022-12-18T07:20:09.546Z,-7.05
2022-12-18T07:22:56.364Z,-6.88
2022-12-18T07:25:22.871Z,-6.90
2022-12-18T07:27:49.190Z,-7.09
2022-12-18T07:30:15.566Z,-7.23
2022-12-18T07:36:23.496Z,-7.12
2022-12-18T07:39:15.942Z,-7.08
2022-12-18T07:45:29.591Z,-7.09
2022-12-18T07:47:55.969Z,-7.06
2022-12-18T07:50:56.580Z,-6.98
2022-12-18T07:53:23.061Z,-6.92
2022-12-18T07:56:18.475Z,-6.94
2022-12-18T07:58:36.178Z,-6.81
2022-12-18T08:01:05.686Z,-6.82
2022-12-18T08:03:59.820Z,-6.70
2022-12-18T08:06:26.717Z,-6.57
2022-12-18T08:08:56.630Z,-6.59
2022-12-18T08:11:39.384Z,-6.65
2022-12-18T08:14:05.700Z,-6.61
2022-12-18T08:16:32.113Z,-6.62
2022-12-18T08:18:58.489Z,-6.63
2022-12-18T08:21:29.897Z,-6.37
2022-12-18T08:24:30.437Z,-6.63
2022-12-18T08:27:27.751Z,-6.54
2022-12-18T08:29:44.471Z,-6.53
2022-12-18T08:32:10.861Z,-6.51
2022-12-18T08:34:57.641Z,-6.42
2022-12-18T08:37:24.089Z,-6.31
2022-12-18T08:40:17.007Z,-6.51
2022-12-18T08:43:02.025Z,-6.72
2022-12-18T08:45:28.593Z,-6.20
2022-12-18T08:48:28.877Z,-6.15
2022-12-18T08:51:30.345Z,-6.11
2022-12-18T08:54:12.170Z,-6.02
2022-12-18T08:56:38.582Z,-5.99
2022-12-18T08:59:05.401Z,-6.12
2022-12-18T09:01:32.027Z,-5.84
2022-12-18T09:03:58.542Z,-5.77
2022-12-18T09:06:27.543Z,-5.76
2022-12-18T09:09:07.518Z,-5.64
2022-12-18T09:11:34.369Z,-5.61
2022-12-18T09:14:11.953Z,-5.59
2022-12-18T09:16:38.373Z,-5.61
2022-12-18T09:19:05.784Z,-5.62
2022-12-18T09:21:37.229Z,-5.62
2022-12-18T09:24:04.088Z,-5.64
2022-12-18T09:26:31.475Z,-5.49
2022-12-18T09:29:13.240Z,-5.48
2022-12-18T09:31:47.942Z,-5.46
2022-12-18T09:34:14.319Z,-5.56
2022-12-18T09:36:40.693Z,-5.57
2022-12-18T09:39:28.980Z,-5.56
2022-12-18T09:42:05.441Z,-5.51
2022-12-18T09:44:36.817Z,-5.44
2022-12-18T09:47:15.999Z,-5.27
2022-12-18T09:49:44.800Z,-5.48
2022-12-18T09:52:17.379Z,-5.19
2022-12-18T09:54:47.260Z,-5.05
2022-12-18T09:57:15.386Z,-5.35
2022-12-18T09:59:43.460Z,-5.20
2022-12-18T10:05:56.583Z,-5.11
2022-12-18T10:08:36.931Z,-5.24
2022-12-18T10:14:58.167Z,-4.88
2022-12-18T10:17:40.918Z,-4.90
2022-12-18T10:20:13.119Z,-4.97
2022-12-18T10:23:00.217Z,-4.80
2022-12-18T10:29:13.583Z,-4.79
2022-12-18T10:31:57.276Z,-4.98
2022-12-18T10:34:46.694Z,-4.66
2022-12-18T10:37:18.977Z,-4.67
2022-12-18T10:39:45.842Z,-4.92
2022-12-18T10:42:17.336Z,-4.76
2022-12-18T10:44:43.888Z,-4.87
2022-12-18T10:47:13.148Z,-4.59
2022-12-18T10:49:43.393Z,-4.57
2022-12-18T10:55:33.476Z,-4.27
2022-12-18T10:58:22.217Z,-4.04
2022-12-18T11:01:24.503Z,-4.01
2022-12-18T11:03:50.898Z,-4.20
2022-12-18T11:06:32.896Z,-4.13
2022-12-18T11:09:32.652Z,-3.93
2022-12-18T11:12:00.455Z,-3.99
2022-12-18T11:14:28.972Z,-3.83
2022-12-18T11:17:27.243Z,-3.94
2022-12-18T11:20:00.862Z,-4.01
2022-12-18T11:22:31.820Z,-3.89
2022-12-18T11:27:57.013Z,-3.57
2022-12-18T11:30:36.515Z,-3.27
2022-12-18T11:33:22.994Z,-3.14
2022-12-18T11:39:26.062Z,-3.09
2022-12-18T11:42:12.771Z,-2.82
2022-12-18T11:44:51.249Z,-2.63
2022-12-18T11:47:21.554Z,-2.78
2022-12-18T11:49:49.889Z,-2.86
2022-12-18T11:52:38.279Z,-3.06
2022-12-18T11:55:14.126Z,-2.81
2022-12-18T11:57:40.446Z,-2.73
2022-12-18T12:04:13.287Z,-2.48
2022-12-18T12:07:03.452Z,-2.66
2022-12-18T12:09:38.462Z,-2.46
2022-12-18T12:12:10.892Z,-2.47
2022-12-18T12:15:09.400Z,-2.65
2022-12-18T12:17:58.370Z,-2.79
2022-12-18T12:20:33.530Z,-2.37
2022-12-18T12:23:07.610Z,-2.54
2022-12-18T12:25:48.463Z,-2.57
2022-12-18T12:28:52.725Z,-2.60
2022-12-18T12:31:53.294Z,-2.53
2022-12-18T12:34:19.751Z,-2.70
2022-12-18T12:37:04.289Z,-2.69
2022-12-18T12:39:36.372Z,-2.67
2022-12-18T12:42:54.549Z,-2.76
2022-12-18T12:45:30.245Z,-3.12
2022-12-18T12:47:58.752Z,-3.17
2022-12-18T12:50:25.709Z,-3.11
2022-12-18T12:52:54.647Z,-3.03
2022-12-18T12:55:39.668Z,-3.05
2022-12-18T12:58:27.585Z,-3.30
2022-12-18T13:01:18.492Z,-3.07
2022-12-18T13:04:18.917Z,-3.16
2022-12-18T13:06:54.727Z,-3.01
2022-12-18T13:09:21.536Z,-3.21
2022-12-18T13:12:07.348Z,-3.14
2022-12-18T13:14:59.635Z,-2.99
2022-12-18T13:17:31.205Z,-3.08
2022-12-18T13:20:15.937Z,-3.01
2022-12-18T13:22:51.212Z,-3.11
2022-12-18T13:25:37.410Z,-3.03
2022-12-18T13:28:15.410Z,-2.90
2022-12-18T13:30:42.956Z,-2.93
2022-12-18T13:33:18.219Z,-3.06
2022-12-18T13:35:47.708Z,-3.16
2022-12-18T13:38:36.321Z,-3.17
2022-12-18T13:41:22.562Z,-3.06
2022-12-18T13:44:19.831Z,-3.02
2022-12-18T13:46:56.906Z,-3.24
2022-12-18T13:49:55.497Z,-3.21
2022-12-18T13:52:53.739Z,-3.33
2022-12-18T13:55:43.875Z,-3.30
2022-12-18T13:58:12.986Z,-3.32
2022-12-18T14:00:45.746Z,-3.40
2022-12-18T14:03:22.613Z,-3.40
2022-12-18T14:06:23.244Z,-3.37
2022-12-18T14:09:01.026Z,-3.46
2022-12-18T14:12:18.528Z,-3.50
2022-12-18T14:15:00.985Z,-3.73
2022-12-18T14:17:36.459Z,-3.70
2022-12-18T14:20:21.669Z,-3.67
2022-12-18T14:23:05.188Z,-3.70
2022-12-18T14:25:38.504Z,-3.74
2022-12-18T14:28:24.041Z,-3.76
2022-12-18T14:30:57.452Z,-3.74
2022-12-18T14:33:25.473Z,-3.83
2022-12-18T14:35:54.553Z,-3.85
2022-12-18T14:38:45.757Z,-3.92
2022-12-18T14:41:12.099Z,-4.18
2022-12-18T14:43:43.880Z,-4.12
2022-12-18T14:46:34.793Z,-4.15
2022-12-18T14:49:05.490Z,-4.04
2022-12-18T14:51:47.896Z,-4.41
2022-12-18T14:57:45.784Z,-4.59
2022-12-18T15:00:22.422Z,-4.61
2022-12-18T15:02:51.532Z,-4.62
2022-12-18T15:05:25.774Z,-4.69
2022-12-18T15:07:53.559Z,-4.90
2022-12-18T15:10:21.620Z,-4.96
2022-12-18T15:12:57.920Z,-4.94
2022-12-18T15:15:45.814Z,-5.04
2022-12-18T15:18:12.699Z,-5.02
2022-12-18T15:20:49.234Z,-5.12
2022-12-18T15:23:19.729Z,-5.14
2022-12-18T15:25:47.666Z,-5.25
2022-12-18T15:28:20.471Z,-5.28
2022-12-18T15:30:59.894Z,-5.38
2022-12-18T15:33:34.703Z,-5.37
2022-12-18T15:36:02.479Z,-5.44
2022-12-18T15:38:28.841Z,-5.41
2022-12-18T15:40:55.612Z,-5.37
2022-12-18T15:43:43.817Z,-5.45
2022-12-18T15:46:27.560Z,-5.46
2022-12-18T15:52:26.758Z,-5.31
2022-12-18T15:55:11.917Z,-5.35
2022-12-18T15:57:38.308Z,-5.40
2022-12-18T16:00:06.035Z,-5.36
2022-12-18T16:02:32.434Z,-5.34
2022-12-18T16:04:59.049Z,-5.53
2022-12-18T16:07:28.166Z,-5.38
2022-12-18T16:10:04.933Z,-5.50
2022-12-18T16:12:31.664Z,-5.64
2022-12-18T16:15:24.109Z,-5.49
2022-12-18T16:17:51.124Z,-5.87
2022-12-18T16:20:51.372Z,-5.85
2022-12-18T16:23:17.707Z,-6.03
2022-12-18T16:25:44.153Z,-5.95
2022-12-18T16:28:10.547Z,-6.15
2022-12-18T16:34:28.844Z,-6.34
2022-12-18T16:36:59.003Z,-6.40
2022-12-18T16:39:31.842Z,-6.31
2022-12-18T16:42:17.428Z,-6.31
2022-12-18T16:44:44.462Z,-6.46
2022-12-18T16:47:14.898Z,-6.50
2022-12-18T16:49:54.696Z,-6.63
2022-12-18T16:52:59.754Z,-6.65
2022-12-18T16:56:02.449Z,-6.87
2022-12-18T17:01:50.756Z,-6.91
2022-12-18T17:04:38.921Z,-6.89
2022-12-18T17:07:24.365Z,-7.02
2022-12-18T17:10:08.353Z,-7.10
2022-12-18T17:12:42.453Z,-6.88
2022-12-18T17:15:10.473Z,-7.12
2022-12-18T17:17:37.046Z,-7.29
2022-12-18T17:20:03.529Z,-7.23
2022-12-18T17:22:29.976Z,-7.41
2022-12-18T17:24:58.452Z,-7.36
2022-12-18T17:27:24.800Z,-7.56
2022-12-18T17:29:51.112Z,-7.36
2022-12-18T17:35:39.498Z,-7.41
2022-12-18T17:38:05.958Z,-7.49
2022-12-18T17:40:35.355Z,-7.41
2022-12-18T17:43:01.873Z,-7.52
2022-12-18T17:48:58.439Z,-7.55
2022-12-18T17:51:25.361Z,-7.40
2022-12-18T17:53:52.062Z,-7.41
2022-12-18T17:56:19.317Z,-7.39
2022-12-18T17:58:55.126Z,-7.42
2022-12-18T18:01:30.867Z,-7.34
2022-12-18T18:04:03.602Z,-7.55
2022-12-18T18:06:30.046Z,-7.52
2022-12-18T18:09:23.521Z,-7.63
2022-12-18T18:12:32.492Z,-7.58
2022-12-18T18:15:36.127Z,-7.68
2022-12-18T18:18:04.473Z,-7.85
2022-12-18T18:20:32.286Z,-7.80
2022-12-18T18:22:58.654Z,-7.83
2022-12-18T18:25:43.295Z,-7.77
2022-12-18T18:28:32.483Z,-7.74
2022-12-18T18:31:34.785Z,-7.83
2022-12-18T18:34:06.726Z,-7.76
2022-12-18T18:36:34.503Z,-7.72
2022-12-18T18:39:08.066Z,-7.82
2022-12-18T18:41:37.052Z,-7.80
2022-12-18T18:44:25.739Z,-7.90
2022-12-18T18:47:15.988Z,-7.82
2022-12-18T18:50:08.068Z,-7.87
2022-12-18T18:52:41.344Z,-8.04
2022-12-18T18:55:25.712Z,-7.88
2022-12-18T18:57:54.490Z,-7.88
2022-12-18T19:00:28.635Z,-8.10
2022-12-18T19:03:00.407Z,-8.02
2022-12-18T19:05:47.682Z,-8.00
2022-12-18T19:08:14.074Z,-8.07
2022-12-18T19:10:41.771Z,-7.93
2022-12-18T19:13:25.022Z,-7.97
2022-12-18T19:15:52.552Z,-8.12
2022-12-18T19:18:22.001Z,-8.01
2022-12-18T19:20:58.669Z,-8.07
2022-12-18T19:23:33.321Z,-8.07
2022-12-18T19:26:27.012Z,-8.08
2022-12-18T19:29:16.968Z,-8.02
2022-12-18T19:31:45.055Z,-7.82
2022-12-18T19:34:20.912Z,-7.85
2022-12-18T19:36:49.395Z,-8.02
2022-12-18T19:39:25.127Z,-8.02
2022-12-18T19:41:53.657Z,-8.20
2022-12-18T19:44:26.770Z,-8.09
2022-12-18T19:46:53.228Z,-8.34
2022-12-18T19:49:21.614Z,-8.04
2022-12-18T19:51:58.284Z,-8.20
2022-12-18T19:54:32.652Z,-8.06
2022-12-18T20:00:26.568Z,-7.90
2022-12-18T20:03:07.757Z,-8.12
2022-12-18T20:05:42.625Z,-8.10
2022-12-18T20:08:36.800Z,-8.15
2022-12-18T20:11:12.463Z,-8.17
2022-12-18T20:13:39.306Z,-8.18
2022-12-18T20:16:06.066Z,-7.96
2022-12-18T20:19:00.468Z,-8.13
2022-12-18T20:22:03.917Z,-8.08
2022-12-18T20:27:59.710Z,-7.98
2022-12-18T20:30:26.116Z,-7.91
2022-12-18T20:32:55.659Z,-7.87
2022-12-18T20:35:31.084Z,-7.80
2022-12-18T20:37:57.696Z,-7.88
2022-12-18T20:40:25.767Z,-7.80
2022-12-18T20:43:04.196Z,-7.77
2022-12-18T20:45:30.563Z,-7.72
2022-12-18T20:51:26.737Z,-7.92
2022-12-18T20:53:55.193Z,-7.83
2022-12-18T20:56:51.330Z,-7.80
2022-12-18T20:59:37.652Z,-8.13
2022-12-18T21:02:13.043Z,-7.94
2022-12-18T21:05:17.537Z,-7.93
2022-12-18T21:07:44.941Z,-7.86
2022-12-18T21:10:11.337Z,-7.75
2022-12-18T21:12:50.905Z,-7.78
2022-12-18T21:15:28.747Z,-7.79
2022-12-18T21:18:17.308Z,-7.79
2022-12-18T21:20:43.733Z,-7.73
2022-12-18T21:23:15.580Z,-7.58
2022-12-18T21:26:14.284Z,-7.55
2022-12-18T21:28:40.672Z,-7.55
2022-12-18T21:31:07.121Z,-7.61
2022-12-18T21:33:46.432Z,-7.50
2022-12-18T21:36:14.937Z,-7.53
2022-12-18T21:38:55.271Z,-7.51
2022-12-18T21:41:42.301Z,-7.52
2022-12-18T21:44:15.878Z,-7.45
2022-12-18T21:46:44.072Z,-7.46
2022-12-18T21:49:23.023Z,-7.45
2022-12-18T21:51:50.554Z,-7.45
2022-12-18T21:54:17.145Z,-7.59
2022-12-18T21:56:44.830Z,-7.54
2022-12-18T21:59:12.378Z,-7.58
2022-12-18T22:01:46.259Z,-7.62
2022-12-18T22:04:13.065Z,-7.53
2022-12-18T22:06:39.593Z,-7.65
2022-12-18T22:09:06.533Z,-7.56
2022-12-18T22:11:33.164Z,-7.55
2022-12-18T22:13:59.516Z,-7.47
2022-12-18T22:16:25.951Z,-7.39
2022-12-18T22:18:52.503Z,-7.41
2022-12-18T22:21:29.235Z,-7.59
2022-12-18T22:23:57.500Z,-7.59
2022-12-18T22:26:24.688Z,-7.57
2022-12-18T22:29:10.086Z,-7.59
2022-12-18T22:31:42.676Z,-7.61
2022-12-18T22:34:09.107Z,-7.65
2022-12-18T22:36:37.008Z,-7.64
2022-12-18T22:39:04.406Z,-7.56
2022-12-18T22:41:30.733Z,-7.50
2022-12-18T22:43:59.051Z,-7.43
2022-12-18T22:46:26.388Z,-7.57
2022-12-18T22:48:53.378Z,-7.48
2022-12-18T22:51:23.548Z,-7.53
2022-12-18T22:53:57.215Z,-7.55
2022-12-18T22:56:23.765Z,-7.37
2022-12-18T22:59:07.960Z,-7.42
2022-12-18T23:01:34.731Z,-7.41
2022-12-18T23:04:02.908Z,-7.47
2022-12-18T23:10:00.675Z,-7.45
2022-12-18T23:12:27.467Z,-7.45
2022-12-18T23:14:54.058Z,-7.43
2022-12-18T23:17:20.475Z,-7.66
2022-12-18T23:19:49.195Z,-7.54
2022-12-18T23:22:16.081Z,-7.59
2022-12-18T23:24:43.715Z,-7.42
2022-12-18T23:27:11.715Z,-7.39
2022-12-18T23:29:38.724Z,-7.56
2022-12-18T23:32:07.152Z,-7.72
2022-12-18T23:34:33.550Z,-7.73
2022-12-18T23:37:01.120Z,-7.53
2022-12-18T23:39:29.387Z,-7.51
2022-12-18T23:45:24.612Z,-7.51
2022-12-18T23:48:26.349Z,-7.41
2022-12-18T23:50:52.678Z,-7.44
2022-12-18T23:53:20.052Z,-7.48
2022-12-18T23:55:46.440Z,-7.59
2022-12-18T23:58:18.534Z,-7.54
